Time,TemperatureF,DewpointF,PressureIn,WindDirection,WindDirectionDegrees,WindSpeedMPH,WindSpeedGustMPH,Humidity,HourlyPrecipIn,Conditions,Clouds,dailyrainin,SoftwareType,DateUTC
2013-01-29 00:05:00,43.9,40.6,30.04,WNW,303,0.0,0.0,88,0.00,,,0.00,Wunderground v.1.15,2013-01-29 05:05:00,
2013-01-29 00:10:00,43.9,40.6,30.04,WNW,303,0.0,0.0,88,0.00,,,0.00,Wunderground v.1.15,2013-01-29 05:10:00,
2013-01-29 00:15:00,44.1,41.1,30.04,WNW,303,0.0,0.0,89,0.00,,,0.00,Wunderground v.1.15,2013-01-29 05:15:00,
2013-01-29 00:20:00,44.3,41.6,30.04,WNW,303,0.0,1.0,90,0.00,,,0.00,Wunderground v.1.15,2013-01-29 05:20:00,
2013-01-29 00:25:00,44.7,41.9,30.04,WNW,303,0.0,1.0,90,0.00,,,0.00,Wunderground v.1.15,2013-01-29 05:25:00,
2013-01-29 00:35:00,45.2,42.4,30.04,WNW,303,0.0,0.0,90,0.00,,,0.00,Wunderground v.1.15,2013-01-29 05:35:00,
2013-01-29 00:40:00,45.3,42.5,30.04,WNW,303,0.0,0.0,90,0.00,,,0.00,Wunderground v.1.15,2013-01-29 05:40:00,
2013-01-29 00:45:00,45.3,42.5,30.03,WNW,303,0.0,0.0,90,0.00,,,0.00,Wunderground v.1.15,2013-01-29 05:45:00,
2013-01-29 00:50:00,45.3,42.5,30.03,WNW,303,0.0,0.0,90,0.00,,,0.00,Wunderground v.1.15,2013-01-29 05:50:00,
2013-01-29 00:55:00,45.4,42.6,30.03,WNW,303,0.0,0.0,90,0.00,,,0.00,Wunderground v.1.15,2013-01-29 05:55:00,
2013-01-29 01:05:00,45.3,42.5,30.03,WNW,303,0.0,0.0,90,0.00,,,0.00,Wunderground v.1.15,2013-01-29 06:05:00,
2013-01-29 01:10:00,45.1,42.1,30.03,WNW,303,0.0,0.0,89,0.00,,,0.00,Wunderground v.1.15,2013-01-29 06:10:00,
2013-01-29 01:15:00,44.7,41.4,30.03,WNW,303,0.0,0.0,88,0.00,,,0.00,Wunderground v.1.15,2013-01-29 06:15:00,
2013-01-29 01:20:00,44.3,41.0,30.03,WNW,303,0.0,0.0,88,0.00,,,0.00,Wunderground v.1.15,2013-01-29 06:20:00,
2013-01-29 01:25:00,43.8,40.2,30.03,WNW,303,0.0,0.0,87,0.00,,,0.00,Wunderground v.1.15,2013-01-29 06:25:00,
2013-01-29 01:30:00,43.6,40.0,30.03,WNW,303,0.0,0.0,87,0.00,,,0.00,Wunderground v.1.15,2013-01-29 06:30:00,
2013-01-29 01:40:00,43.4,40.4,30.03,WNW,303,1.0,1.0,89,0.00,,,0.00,Wunderground v.1.15,2013-01-29 06:40:00,
2013-01-29 01:45:00,43.3,40.3,30.03,WNW,303,1.0,1.0,89,0.00,,,0.00,Wunderground v.1.15,2013-01-29 06:45:00,
2013-01-29 01:50:00,43.2,40.2,30.04,WNW,303,0.0,0.0,89,0.00,,,0.00,Wunderground v.1.15,2013-01-29 06:50:00,
2013-01-29 01:55:00,43.2,40.2,30.03,WNW,303,0.0,0.0,89,0.00,,,0.00,Wunderground v.1.15,2013-01-29 06:55:00,
2013-01-29 02:00:00,43.2,40.5,30.04,WNW,303,0.0,0.0,90,0.00,,,0.00,Wunderground v.1.15,2013-01-29 07:00:00,
2013-01-29 02:05:00,43.2,40.5,30.04,WNW,303,0.0,0.0,90,0.00,,,0.00,Wunderground v.1.15,2013-01-29 07:05:00,
2013-01-29 02:15:00,43.2,40.5,30.04,WNW,303,0.0,0.0,90,0.00,,,0.00,Wunderground v.1.15,2013-01-29 07:15:00,
2013-01-29 02:20:00,42.9,40.2,30.04,WNW,303,0.0,0.0,90,0.00,,,0.00,Wunderground v.1.15,2013-01-29 07:20:00,
2013-01-29 02:25:00,42.3,39.3,30.05,WNW,303,0.0,1.0,89,0.00,,,0.00,Wunderground v.1.15,2013-01-29 07:25:00,
2013-01-29 02:30:00,41.7,38.7,30.05,WNW,303,0.0,0.0,89,0.00,,,0.00,Wunderground v.1.15,2013-01-29 07:30:00,
2013-01-29 02:35:00,41.2,38.2,30.04,WNW,303,0.0,0.0,89,0.00,,,0.00,Wunderground v.1.15,2013-01-29 07:35:00,
2013-01-29 02:40:00,40.7,37.4,30.04,WNW,303,0.0,0.0,88,0.00,,,0.00,Wunderground v.1.15,2013-01-29 07:40:00,
2013-01-29 02:50:00,40.0,37.0,30.05,WNW,303,0.0,0.0,89,0.00,,,0.00,Wunderground v.1.15,2013-01-29 07:50:00,
2013-01-29 02:55:00,39.8,36.8,30.04,WNW,303,0.0,0.0,89,0.00,,,0.00,Wunderground v.1.15,2013-01-29 07:55:00,
2013-01-29 03:00:00,39.6,36.6,30.04,WNW,303,0.0,0.0,89,0.00,,,0.00,Wunderground v.1.15,2013-01-29 08:00:00,
2013-01-29 03:05:00,39.4,36.4,30.04,WNW,303,0.0,0.0,89,0.00,,,0.00,Wunderground v.1.15,2013-01-29 08:05:00,
2013-01-29 03:10:00,39.3,36.6,30.04,WNW,303,0.0,0.0,90,0.00,,,0.00,Wunderground v.1.15,2013-01-29 08:10:00,
2013-01-29 03:15:00,39.1,36.4,30.04,WNW,303,0.0,0.0,90,0.00,,,0.00,Wunderground v.1.15,2013-01-29 08:15:00,
2013-01-29 03:25:00,38.8,36.1,30.04,WNW,303,0.0,0.0,90,0.00,,,0.00,Wunderground v.1.15,2013-01-29 08:25:00,
2013-01-29 03:30:00,38.7,36.0,30.04,WNW,303,0.0,0.0,90,0.00,,,0.00,Wunderground v.1.15,2013-01-29 08:30:00,
2013-01-29 03:35:00,38.5,35.8,30.05,WNW,303,0.0,0.0,90,0.00,,,0.00,Wunderground v.1.15,2013-01-29 08:35:00,
2013-01-29 03:40:00,38.3,35.6,30.04,WNW,303,0.0,0.0,90,0.00,,,0.00,Wunderground v.1.15,2013-01-29 08:40:00,
2013-01-29 03:45:00,38.2,35.8,30.04,WNW,303,0.0,0.0,91,0.00,,,0.00,Wunderground v.1.15,2013-01-29 08:45:00,
2013-01-29 03:50:00,38.0,35.6,30.04,WNW,303,0.0,0.0,91,0.00,,,0.00,Wunderground v.1.15,2013-01-29 08:50:00,
2013-01-29 03:55:00,37.8,35.4,30.05,WNW,303,0.0,0.0,91,0.00,,,0.00,Wunderground v.1.15,2013-01-29 08:55:00,
2013-01-29 04:05:00,37.6,35.2,30.05,WNW,303,0.0,0.0,91,0.00,,,0.00,Wunderground v.1.15,2013-01-29 09:05:00,
2013-01-29 04:10:00,37.5,35.1,30.04,WNW,303,0.0,0.0,91,0.00,,,0.00,Wunderground v.1.15,2013-01-29 09:10:00,
2013-01-29 04:15:00,37.5,35.1,30.05,WNW,303,0.0,0.0,91,0.00,,,0.00,Wunderground v.1.15,2013-01-29 09:15:00,
2013-01-29 04:20:00,37.4,35.0,30.05,WNW,303,0.0,0.0,91,0.00,,,0.00,Wunderground v.1.15,2013-01-29 09:20:00,
2013-01-29 04:25:00,37.4,35.3,30.05,WNW,303,0.0,1.0,92,0.00,,,0.00,Wunderground v.1.15,2013-01-29 09:25:00,
2013-01-29 04:30:00,37.4,35.3,30.05,WNW,303,0.0,0.0,92,0.00,,,0.00,Wunderground v.1.15,2013-01-29 09:30:00,
2013-01-29 04:40:00,37.3,35.2,30.05,WNW,303,0.0,0.0,92,0.00,,,0.00,Wunderground v.1.15,2013-01-29 09:40:00,
2013-01-29 04:45:00,37.2,35.1,30.05,WNW,303,0.0,0.0,92,0.00,,,0.00,Wunderground v.1.15,2013-01-29 09:45:00,
2013-01-29 04:50:00,37.2,35.1,30.05,WNW,303,0.0,0.0,92,0.00,,,0.00,Wunderground v.1.15,2013-01-29 09:50:00,
2013-01-29 04:55:00,37.2,35.1,30.06,WNW,303,0.0,0.0,92,0.00,,,0.00,Wunderground v.1.15,2013-01-29 09:55:00,
2013-01-29 05:00:00,37.3,35.5,30.06,WNW,303,0.0,0.0,93,0.00,,,0.00,Wunderground v.1.15,2013-01-29 10:00:00,
2013-01-29 05:05:00,37.5,35.7,30.06,WNW,303,0.0,0.0,93,0.00,,,0.00,Wunderground v.1.15,2013-01-29 10:05:00,
2013-01-29 05:15:00,37.9,36.1,30.06,WNW,303,1.0,2.0,93,0.00,,,0.00,Wunderground v.1.15,2013-01-29 10:15:00,
2013-01-29 05:20:00,38.2,36.4,30.06,WNW,303,2.0,2.0,93,0.00,,,0.00,Wunderground v.1.15,2013-01-29 10:20:00,
2013-01-29 05:25:00,38.4,36.8,30.06,WNW,303,1.0,2.0,94,0.00,,,0.00,Wunderground v.1.15,2013-01-29 10:25:00,
2013-01-29 05:30:00,38.7,37.1,30.06,WNW,303,1.0,2.0,94,0.00,,,0.00,Wunderground v.1.15,2013-01-29 10:30:00,
2013-01-29 05:35:00,39.1,37.5,30.06,WNW,303,1.0,2.0,94,0.00,,,0.00,Wunderground v.1.15,2013-01-29 10:35:00,
2013-01-29 05:40:00,39.4,37.8,30.06,WNW,303,1.0,1.0,94,0.00,,,0.00,Wunderground v.1.15,2013-01-29 10:40:00,
2013-01-29 05:45:00,39.7,38.1,30.06,WNW,303,0.0,1.0,94,0.00,,,0.00,Wunderground v.1.15,2013-01-29 10:45:00,
2013-01-29 05:55:00,40.1,38.5,30.07,WNW,303,0.0,0.0,94,0.00,,,0.00,Wunderground v.1.15,2013-01-29 10:55:00,
2013-01-29 06:00:00,40.4,38.8,30.06,WNW,303,0.0,1.0,94,0.00,,,0.00,Wunderground v.1.15,2013-01-29 11:00:00,
2013-01-29 06:05:00,40.6,39.0,30.07,WNW,303,0.0,1.0,94,0.00,,,0.00,Wunderground v.1.15,2013-01-29 11:05:00,
2013-01-29 06:10:00,40.9,39.6,30.07,WNW,303,0.0,1.0,95,0.00,,,0.00,Wunderground v.1.15,2013-01-29 11:10:00,
2013-01-29 06:15:00,41.1,39.8,30.07,WNW,303,1.0,1.0,95,0.00,,,0.00,Wunderground v.1.15,2013-01-29 11:15:00,
2013-01-29 06:20:00,41.3,40.0,30.07,WNW,303,0.0,0.0,95,0.00,,,0.00,Wunderground v.1.15,2013-01-29 11:20:00,
2013-01-29 06:30:00,41.3,40.0,30.08,WNW,303,0.0,0.0,95,0.00,,,0.00,Wunderground v.1.15,2013-01-29 11:30:00,
2013-01-29 06:34:00,41.0,39.4,30.08,WNW,303,0.0,0.0,94,0.00,,,0.00,Wunderground v.1.15,2013-01-29 11:34:00,
2013-01-29 06:40:00,40.6,39.0,30.08,WNW,303,0.0,0.0,94,0.00,,,0.00,Wunderground v.1.15,2013-01-29 11:40:00,
2013-01-29 06:45:00,40.3,38.7,30.09,WNW,303,0.0,1.0,94,0.00,,,0.00,Wunderground v.1.15,2013-01-29 11:45:00,
2013-01-29 06:50:00,39.8,38.2,30.08,WNW,303,1.0,2.0,94,0.00,,,0.00,Wunderground v.1.15,2013-01-29 11:50:00,
2013-01-29 06:55:00,39.4,37.8,30.08,WNW,303,1.0,2.0,94,0.00,,,0.00,Wunderground v.1.15,2013-01-29 11:55:00,
2013-01-29 07:00:00,39.2,37.6,30.09,SE,134,1.0,1.0,94,0.00,,,0.00,Wunderground v.1.15,2013-01-29 12:00:00,
2013-01-29 07:09:00,39.2,37.6,30.09,SE,142,1.0,3.0,94,0.00,,,0.00,Wunderground v.1.15,2013-01-29 12:09:00,
2013-01-29 07:15:00,39.2,37.6,30.10,South,183,1.0,3.0,94,0.00,,,0.00,Wunderground v.1.15,2013-01-29 12:15:00,
2013-01-29 07:20:00,39.3,37.7,30.10,South,183,2.0,2.0,94,0.00,,,0.00,Wunderground v.1.15,2013-01-29 12:20:00,
2013-01-29 07:25:00,39.5,38.2,30.10,South,183,2.0,2.0,95,0.00,,,0.00,Wunderground v.1.15,2013-01-29 12:25:00,
2013-01-29 07:30:00,39.6,38.3,30.10,South,183,1.0,1.0,95,0.00,,,0.00,Wunderground v.1.15,2013-01-29 12:30:00,
2013-01-29 07:35:00,39.8,38.5,30.10,South,183,0.0,2.0,95,0.00,,,0.00,Wunderground v.1.15,2013-01-29 12:35:00,
2013-01-29 07:44:00,40.0,38.7,30.10,South,183,1.0,1.0,95,0.00,,,0.00,Wunderground v.1.15,2013-01-29 12:44:00,
2013-01-29 07:50:00,40.2,38.9,30.10,South,183,1.0,1.0,95,0.00,,,0.00,Wunderground v.1.15,2013-01-29 12:50:00,
2013-01-29 07:55:00,40.4,39.1,30.10,South,183,0.0,1.0,95,0.00,,,0.00,Wunderground v.1.15,2013-01-29 12:55:00,
2013-01-29 08:00:00,40.6,39.3,30.10,South,183,0.0,0.0,95,0.00,,,0.00,Wunderground v.1.15,2013-01-29 13:00:00,
2013-01-29 08:05:00,40.7,39.4,30.10,South,183,0.0,0.0,95,0.00,,,0.00,Wunderground v.1.15,2013-01-29 13:05:00,
2013-01-29 08:15:00,41.7,40.4,30.10,South,183,0.0,0.0,95,0.00,,,0.00,Wunderground v.1.15,2013-01-29 13:15:00,
2013-01-29 08:19:00,41.9,40.6,30.10,South,184,0.0,2.0,95,0.00,,,0.00,Wunderground v.1.15,2013-01-29 13:19:00,
2013-01-29 08:25:00,41.9,40.6,30.10,South,184,1.0,2.0,95,0.00,,,0.00,Wunderground v.1.15,2013-01-29 13:25:00,
2013-01-29 08:30:00,42.2,40.9,30.11,South,184,1.0,1.0,95,0.00,,,0.00,Wunderground v.1.15,2013-01-29 13:30:00,
2013-01-29 08:35:00,43.5,42.2,30.11,South,184,0.0,1.0,95,0.00,,,0.00,Wunderground v.1.15,2013-01-29 13:35:00,
2013-01-29 08:40:00,44.3,43.0,30.11,South,184,0.0,0.0,95,0.00,,,0.00,Wunderground v.1.15,2013-01-29 13:40:00,
2013-01-29 08:45:00,44.3,42.7,30.11,South,184,0.0,0.0,94,0.00,,,0.00,Wunderground v.1.15,2013-01-29 13:45:00,
2013-01-29 08:54:00,42.7,40.5,30.10,South,184,0.0,1.0,92,0.00,,,0.00,Wunderground v.1.15,2013-01-29 13:54:00,
2013-01-29 09:00:00,42.3,39.9,30.11,ENE,74,1.0,2.0,91,0.00,,,0.00,Wunderground v.1.15,2013-01-29 14:00:00,
2013-01-29 09:05:00,41.6,39.4,30.11,ENE,74,1.0,2.0,92,0.00,,,0.00,Wunderground v.1.15,2013-01-29 14:05:00,
2013-01-29 09:10:00,42.0,39.8,30.11,SSE,161,2.0,2.0,92,0.00,,,0.00,Wunderground v.1.15,2013-01-29 14:10:00,
2013-01-29 09:15:00,43.1,41.2,30.11,SE,127,1.0,2.0,93,0.00,,,0.00,Wunderground v.1.15,2013-01-29 14:15:00,
2013-01-29 09:20:00,42.2,40.0,30.11,SE,136,1.0,1.0,92,0.00,,,0.00,Wunderground v.1.15,2013-01-29 14:20:00,
2013-01-29 09:30:00,42.3,39.9,30.11,SE,137,2.0,2.0,91,0.00,,,0.00,Wunderground v.1.15,2013-01-29 14:30:00,
2013-01-29 09:40:00,42.5,40.1,30.11,SE,138,2.0,4.0,91,0.00,,,0.00,Wunderground v.1.15,2013-01-29 14:40:00,
2013-01-29 09:45:00,42.7,40.3,30.11,SE,140,3.0,4.0,91,0.00,,,0.00,Wunderground v.1.15,2013-01-29 14:45:00,
2013-01-29 09:50:00,42.5,40.1,30.11,SE,137,3.0,3.0,91,0.00,,,0.00,Wunderground v.1.15,2013-01-29 14:50:00,
2013-01-29 09:55:00,42.9,40.5,30.12,SE,144,2.0,3.0,91,0.00,,,0.00,Wunderground v.1.15,2013-01-29 14:55:00,
2013-01-29 10:04:00,43.9,40.9,30.12,SSE,153,2.0,2.0,89,0.00,,,0.00,Wunderground v.1.15,2013-01-29 15:04:00,
2013-01-29 10:09:00,43.3,40.3,30.13,SSE,150,2.0,3.0,89,0.00,,,0.00,Wunderground v.1.15,2013-01-29 15:09:00,
2013-01-29 10:15:00,43.0,40.3,30.13,SE,134,3.0,4.0,90,0.00,,,0.00,Wunderground v.1.15,2013-01-29 15:15:00,
2013-01-29 10:20:00,43.6,41.1,30.13,SE,139,3.0,3.0,91,0.00,,,0.00,Wunderground v.1.15,2013-01-29 15:20:00,
2013-01-29 10:25:00,45.4,42.3,30.13,SE,139,2.0,4.0,89,0.00,,,0.00,Wunderground v.1.15,2013-01-29 15:25:00,
2013-01-29 10:30:00,45.8,42.2,30.13,SE,142,2.0,3.0,87,0.00,,,0.00,Wunderground v.1.15,2013-01-29 15:30:00,
2013-01-29 10:35:00,45.2,41.9,30.13,SE,135,3.0,4.0,88,0.00,,,0.00,Wunderground v.1.15,2013-01-29 15:35:00,
2013-01-29 10:40:00,44.8,41.5,30.13,SSE,153,3.0,4.0,88,0.00,,,0.00,Wunderground v.1.15,2013-01-29 15:40:00,
2013-01-29 10:50:00,44.1,40.8,30.12,SE,140,3.0,3.0,88,0.00,,,0.00,Wunderground v.1.15,2013-01-29 15:50:00,
2013-01-29 10:55:00,44.2,41.2,30.12,SE,140,3.0,3.0,89,0.00,,,0.00,Wunderground v.1.15,2013-01-29 15:55:00,
2013-01-29 11:00:00,44.4,41.1,30.11,SE,138,3.0,3.0,88,0.00,,,0.00,Wunderground v.1.15,2013-01-29 16:00:00,
2013-01-29 11:10:00,44.6,41.6,30.11,SE,142,4.0,4.0,89,0.00,,,0.00,Wunderground v.1.15,2013-01-29 16:10:00,
2013-01-29 11:14:00,45.2,42.2,30.11,SSE,149,4.0,4.0,89,0.00,,,0.00,Wunderground v.1.15,2013-01-29 16:14:00,
2013-01-29 11:20:00,45.8,42.2,30.10,SE,131,3.0,5.0,87,0.00,,,0.00,Wunderground v.1.15,2013-01-29 16:20:00,
2013-01-29 11:25:00,46.0,42.6,30.10,SSE,157,3.0,5.0,88,0.00,,,0.00,Wunderground v.1.15,2013-01-29 16:25:00,
2013-01-29 11:30:00,46.9,43.2,30.10,SSE,157,3.0,3.0,87,0.00,,,0.00,Wunderground v.1.15,2013-01-29 16:30:00,
2013-01-29 11:35:00,48.1,44.4,30.10,SSE,157,2.0,3.0,87,0.00,,,0.00,Wunderground v.1.15,2013-01-29 16:35:00,
2013-01-29 11:45:00,49.5,44.6,30.10,SSE,148,3.0,4.0,83,0.00,,,0.00,Wunderground v.1.15,2013-01-29 16:45:00,
2013-01-29 11:50:00,49.3,44.4,30.09,SSE,154,3.0,3.0,83,0.00,,,0.00,Wunderground v.1.15,2013-01-29 16:50:00,
2013-01-29 11:55:00,49.3,44.4,30.10,SSE,159,3.0,4.0,83,0.00,,,0.00,Wunderground v.1.15,2013-01-29 16:55:00,
2013-01-29 12:00:00,49.5,44.9,30.09,SSE,152,3.0,3.0,84,0.00,,,0.00,Wunderground v.1.15,2013-01-29 17:00:00,
2013-01-29 12:10:00,51.5,45.9,30.09,South,184,2.0,4.0,81,0.00,,,0.00,Wunderground v.1.15,2013-01-29 17:10:00,
2013-01-29 12:15:00,52.0,46.3,30.09,South,183,2.0,4.0,81,0.00,,,0.00,Wunderground v.1.15,2013-01-29 17:15:00,
2013-01-29 12:20:00,52.3,46.3,30.09,South,186,2.0,4.0,80,0.00,,,0.00,Wunderground v.1.15,2013-01-29 17:20:00,
2013-01-29 12:25:00,52.4,46.4,30.08,South,188,3.0,5.0,80,0.00,,,0.00,Wunderground v.1.15,2013-01-29 17:25:00,
2013-01-29 12:30:00,52.1,46.1,30.08,SSE,157,4.0,5.0,80,0.00,,,0.00,Wunderground v.1.15,2013-01-29 17:30:00,
2013-01-29 12:35:00,52.4,46.4,30.08,SSE,153,5.0,5.0,80,0.00,,,0.00,Wunderground v.1.15,2013-01-29 17:35:00,
2013-01-29 12:40:00,52.8,46.5,30.07,South,182,4.0,4.0,79,0.00,,,0.00,Wunderground v.1.15,2013-01-29 17:40:00,
2013-01-29 12:50:00,52.9,46.6,30.08,South,172,4.0,4.0,79,0.00,,,0.00,Wunderground v.1.15,2013-01-29 17:50:00,
2013-01-29 12:55:00,53.3,46.6,30.07,SSE,164,4.0,4.0,78,0.00,,,0.00,Wunderground v.1.15,2013-01-29 17:55:00,
2013-01-29 13:00:00,53.8,47.1,30.07,South,186,3.0,3.0,78,0.00,,,0.00,Wunderground v.1.15,2013-01-29 18:00:00,
2013-01-29 13:05:00,54.0,47.3,30.07,South,184,4.0,4.0,78,0.00,,,0.00,Wunderground v.1.15,2013-01-29 18:05:00,
2013-01-29 13:10:00,54.1,47.0,30.07,South,179,4.0,5.0,77,0.00,,,0.00,Wunderground v.1.15,2013-01-29 18:10:00,
2013-01-29 13:15:00,54.2,47.1,30.06,SE,144,3.0,5.0,77,0.00,,,0.00,Wunderground v.1.15,2013-01-29 18:15:00,
2013-01-29 13:24:00,54.6,47.5,30.05,SE,143,3.0,3.0,77,0.00,,,0.00,Wunderground v.1.15,2013-01-29 18:24:00,
2013-01-29 13:30:00,53.8,46.4,30.05,South,171,3.0,3.0,76,0.00,,,0.00,Wunderground v.1.15,2013-01-29 18:30:00,
2013-01-29 13:35:00,54.1,47.4,30.05,SE,133,2.0,3.0,78,0.00,,,0.00,Wunderground v.1.15,2013-01-29 18:35:00,
2013-01-29 13:40:00,54.6,47.5,30.05,South,185,2.0,3.0,77,0.00,,,0.00,Wunderground v.1.15,2013-01-29 18:40:00,
2013-01-29 13:45:00,55.1,48.0,30.05,South,178,3.0,3.0,77,0.00,,,0.00,Wunderground v.1.15,2013-01-29 18:45:00,
2013-01-29 13:50:00,55.5,48.1,30.05,South,181,3.0,3.0,76,0.00,,,0.00,Wunderground v.1.15,2013-01-29 18:50:00,
2013-01-29 13:55:00,55.9,48.1,30.04,SSE,166,3.0,3.0,75,0.00,,,0.00,Wunderground v.1.15,2013-01-29 18:55:00,
2013-01-29 14:05:00,54.6,47.5,30.03,SSW,208,3.0,3.0,77,0.00,,,0.00,Wunderground v.1.15,2013-01-29 19:05:00,
2013-01-29 14:10:00,54.4,47.3,30.04,SSW,198,3.0,4.0,77,0.00,,,0.00,Wunderground v.1.15,2013-01-29 19:10:00,
2013-01-29 14:15:00,54.6,47.9,30.04,South,172,3.0,4.0,78,0.00,,,0.00,Wunderground v.1.15,2013-01-29 19:15:00,
2013-01-29 14:20:00,55.0,47.9,30.04,South,169,3.0,3.0,77,0.00,,,0.00,Wunderground v.1.15,2013-01-29 19:20:00,
2013-01-29 14:25:00,55.5,48.4,30.04,South,177,3.0,3.0,77,0.00,,,0.00,Wunderground v.1.15,2013-01-29 19:25:00,
2013-01-29 14:30:00,55.5,48.1,30.04,South,175,3.0,3.0,76,0.00,,,0.00,Wunderground v.1.15,2013-01-29 19:30:00,
2013-01-29 14:40:00,56.2,48.7,30.04,SSE,163,3.0,4.0,76,0.00,,,0.00,Wunderground v.1.15,2013-01-29 19:40:00,
2013-01-29 14:44:00,56.7,48.9,30.04,South,178,4.0,4.0,75,0.00,,,0.00,Wunderground v.1.15,2013-01-29 19:44:00,
2013-01-29 14:50:00,57.2,49.3,30.04,South,171,4.0,4.0,75,0.00,,,0.00,Wunderground v.1.15,2013-01-29 19:50:00,
2013-01-29 14:55:00,57.4,49.2,30.04,SSE,155,4.0,5.0,74,0.00,,,0.00,Wunderground v.1.15,2013-01-29 19:55:00,
2013-01-29 15:00:00,56.9,48.7,30.04,SSW,193,4.0,5.0,74,0.00,,,0.00,Wunderground v.1.15,2013-01-29 20:00:00,
2013-01-29 15:10:00,56.0,48.2,30.04,SSE,163,4.0,4.0,75,0.00,,,0.00,Wunderground v.1.15,2013-01-29 20:10:00,
2013-01-29 15:15:00,55.4,48.0,30.04,South,169,5.0,5.0,76,0.00,,,0.00,Wunderground v.1.15,2013-01-29 20:15:00,
2013-01-29 15:20:00,55.5,48.4,30.04,SW,220,4.0,7.0,77,0.00,,,0.00,Wunderground v.1.15,2013-01-29 20:20:00,
2013-01-29 15:30:00,54.2,46.8,30.03,SSE,160,6.0,6.0,76,0.00,,,0.00,Wunderground v.1.15,2013-01-29 20:30:00,
2013-01-29 15:35:00,53.5,46.8,30.03,SSW,203,5.0,6.0,78,0.00,,,0.00,Wunderground v.1.15,2013-01-29 20:35:00,
2013-01-29 15:40:00,53.0,46.3,30.03,SSW,193,5.0,5.0,78,0.00,,,0.00,Wunderground v.1.15,2013-01-29 20:40:00,
2013-01-29 15:50:00,52.1,45.8,30.03,SSE,167,5.0,9.0,79,0.00,,,0.00,Wunderground v.1.15,2013-01-29 20:50:00,
2013-01-29 15:55:00,51.6,45.6,30.03,South,188,5.0,9.0,80,0.00,,,0.00,Wunderground v.1.15,2013-01-29 20:55:00,
2013-01-29 16:00:00,51.4,45.8,30.03,South,176,5.0,5.0,81,0.00,,,0.00,Wunderground v.1.15,2013-01-29 21:00:00,
2013-01-29 16:05:00,51.4,46.1,30.03,South,178,5.0,7.0,82,0.00,,,0.00,Wunderground v.1.15,2013-01-29 21:05:00,
2013-01-29 16:10:00,51.9,46.6,30.04,SSE,160,4.0,4.0,82,0.00,,,0.00,Wunderground v.1.15,2013-01-29 21:10:00,
2013-01-29 16:15:00,52.6,47.3,30.03,South,176,5.0,6.0,82,0.00,,,0.00,Wunderground v.1.15,2013-01-29 21:15:00,
2013-01-29 16:25:00,53.1,47.4,30.03,SSW,198,5.0,5.0,81,0.00,,,0.00,Wunderground v.1.15,2013-01-29 21:25:00,
2013-01-29 16:30:00,52.7,47.0,30.03,SSE,153,5.0,5.0,81,0.00,,,0.00,Wunderground v.1.15,2013-01-29 21:30:00,
2013-01-29 16:35:00,52.4,46.4,30.03,South,172,5.0,6.0,80,0.00,,,0.00,Wunderground v.1.15,2013-01-29 21:35:00,
2013-01-29 16:40:00,52.0,46.3,30.03,SSE,167,6.0,6.0,81,0.00,,,0.00,Wunderground v.1.15,2013-01-29 21:40:00,
2013-01-29 16:45:00,51.5,46.2,30.03,SSW,193,6.0,10.0,82,0.00,,,0.00,Wunderground v.1.15,2013-01-29 21:45:00,
2013-01-29 16:50:00,51.1,45.8,30.03,SSE,165,6.0,13.0,82,0.00,,,0.00,Wunderground v.1.15,2013-01-29 21:50:00,
2013-01-29 17:00:00,50.3,45.3,30.03,South,187,7.0,9.0,83,0.00,,,0.00,Wunderground v.1.15,2013-01-29 22:00:00,
2013-01-29 17:05:00,50.0,45.0,30.03,SSE,167,7.0,9.0,83,0.00,,,0.00,Wunderground v.1.15,2013-01-29 22:05:00,
2013-01-29 17:10:00,49.5,44.9,30.03,SSE,167,7.0,7.0,84,0.00,,,0.00,Wunderground v.1.15,2013-01-29 22:10:00,
2013-01-29 17:15:00,49.0,44.4,30.03,SW,214,7.0,7.0,84,0.00,,,0.00,Wunderground v.1.15,2013-01-29 22:15:00,
2013-01-29 17:20:00,48.5,43.9,30.03,South,188,7.0,7.0,84,0.00,,,0.00,Wunderground v.1.15,2013-01-29 22:20:00,
2013-01-29 17:30:00,47.4,43.1,30.03,South,186,6.0,6.0,85,0.00,,,0.00,Wunderground v.1.15,2013-01-29 22:30:00,
2013-01-29 17:35:00,46.8,42.8,30.03,WSW,238,6.0,6.0,86,0.00,,,0.00,Wunderground v.1.15,2013-01-29 22:35:00,
2013-01-29 17:40:00,46.4,42.4,30.03,South,186,6.0,6.0,86,0.00,,,0.00,Wunderground v.1.15,2013-01-29 22:40:00,
2013-01-29 17:45:00,46.3,42.6,30.03,SSE,154,6.0,7.0,87,0.00,,,0.00,Wunderground v.1.15,2013-01-29 22:45:00,
2013-01-29 17:50:00,46.3,42.9,30.03,SSW,203,6.0,6.0,88,0.00,,,0.00,Wunderground v.1.15,2013-01-29 22:50:00,
2013-01-29 17:55:00,46.3,42.9,30.03,South,180,6.0,6.0,88,0.00,,,0.00,Wunderground v.1.15,2013-01-29 22:55:00,
2013-01-29 18:05:00,46.1,43.0,30.03,South,182,6.0,7.0,89,0.00,,,0.00,Wunderground v.1.15,2013-01-29 23:05:00,
2013-01-29 18:10:00,46.1,43.0,30.03,South,180,7.0,7.0,89,0.00,,,0.00,Wunderground v.1.15,2013-01-29 23:10:00,
2013-01-29 18:19:00,46.3,43.5,30.03,SSW,193,6.0,7.0,90,0.00,,,0.00,Wunderground v.1.15,2013-01-29 23:19:00,
2013-01-29 18:25:00,46.6,43.8,30.03,SW,221,7.0,7.0,90,0.00,,,0.00,Wunderground v.1.15,2013-01-29 23:25:00,
2013-01-29 18:30:00,46.8,44.0,30.02,SSE,165,7.0,8.0,90,0.00,,,0.00,Wunderground v.1.15,2013-01-29 23:30:00,
2013-01-29 18:35:00,47.0,44.2,30.02,South,182,7.0,9.0,90,0.00,,,0.00,Wunderground v.1.15,2013-01-29 23:35:00,
2013-01-29 18:40:00,47.3,44.5,30.03,SSE,160,7.0,9.0,90,0.00,,,0.00,Wunderground v.1.15,2013-01-29 23:40:00,
2013-01-29 18:45:00,47.4,44.6,30.03,South,183,7.0,9.0,90,0.00,,,0.00,Wunderground v.1.15,2013-01-29 23:45:00,
2013-01-29 18:55:00,47.0,43.9,30.02,South,178,6.0,6.0,89,0.00,,,0.00,Wunderground v.1.15,2013-01-29 23:55:00,
2013-01-29 19:05:00,46.6,43.5,30.02,SSE,161,6.0,6.0,89,0.00,,,0.00,Wunderground v.1.15,2013-01-30 00:05:00,
2013-01-29 19:10:00,46.8,44.0,30.03,SSE,165,6.0,6.0,90,0.00,,,0.00,Wunderground v.1.15,2013-01-30 00:10:00,
2013-01-29 19:15:00,46.7,43.9,30.03,SSE,165,6.0,6.0,90,0.00,,,0.00,Wunderground v.1.15,2013-01-30 00:15:00,
2013-01-29 19:20:00,46.4,43.3,30.03,South,178,5.0,5.0,89,0.00,,,0.00,Wunderground v.1.15,2013-01-30 00:20:00,
2013-01-29 19:25:00,46.1,43.0,30.02,South,188,5.0,5.0,89,0.00,,,0.00,Wunderground v.1.15,2013-01-30 00:25:00,
2013-01-29 19:30:00,45.8,42.7,30.03,South,182,4.0,4.0,89,0.00,,,0.00,Wunderground v.1.15,2013-01-30 00:30:00,
2013-01-29 19:40:00,45.5,42.7,30.02,South,183,4.0,4.0,90,0.00,,,0.00,Wunderground v.1.15,2013-01-30 00:40:00,
2013-01-29 19:45:00,45.4,42.6,30.03,SSE,168,4.0,4.0,90,0.00,,,0.00,Wunderground v.1.15,2013-01-30 00:45:00,
2013-01-29 19:50:00,45.5,43.0,30.02,SSE,163,5.0,8.0,91,0.00,,,0.00,Wunderground v.1.15,2013-01-30 00:50:00,
2013-01-29 19:55:00,45.6,43.1,30.02,SSW,193,5.0,8.0,91,0.00,,,0.00,Wunderground v.1.15,2013-01-30 00:55:00,
2013-01-29 20:00:00,45.6,43.1,30.03,South,186,5.0,5.0,91,0.00,,,0.00,Wunderground v.1.15,2013-01-30 01:00:00,
2013-01-29 20:05:00,45.8,43.6,30.02,South,170,5.0,5.0,92,0.00,,,0.00,Wunderground v.1.15,2013-01-30 01:05:00,
2013-01-29 20:15:00,46.2,44.0,30.03,South,188,6.0,10.0,92,0.00,,,0.00,Wunderground v.1.15,2013-01-30 01:15:00,
2013-01-29 20:20:00,46.2,44.0,30.03,SSW,203,7.0,7.0,92,0.00,,,0.00,Wunderground v.1.15,2013-01-30 01:20:00,
2013-01-29 20:25:00,46.1,43.6,30.02,South,169,6.0,7.0,91,0.00,,,0.00,Wunderground v.1.15,2013-01-30 01:25:00,
2013-01-29 20:30:00,46.1,43.9,30.02,SSW,193,5.0,5.0,92,0.00,,,0.00,Wunderground v.1.15,2013-01-30 01:30:00,
2013-01-29 20:35:00,46.2,44.0,30.03,South,173,6.0,6.0,92,0.00,,,0.00,Wunderground v.1.15,2013-01-30 01:35:00,
2013-01-29 20:40:00,46.3,44.1,30.03,South,184,6.0,6.0,92,0.00,,,0.00,Wunderground v.1.15,2013-01-30 01:40:00,
2013-01-29 20:45:00,46.4,44.2,30.03,SSW,193,6.0,6.0,92,0.00,,,0.00,Wunderground v.1.15,2013-01-30 01:45:00,
2013-01-29 20:55:00,46.3,43.8,30.02,SSE,168,7.0,7.0,91,0.00,,,0.00,Wunderground v.1.15,2013-01-30 01:55:00,
2013-01-29 21:00:00,46.2,43.7,30.02,South,176,6.0,6.0,91,0.00,,,0.00,Wunderground v.1.15,2013-01-30 02:00:00,
2013-01-29 21:05:00,46.0,43.5,30.02,SSE,167,6.0,7.0,91,0.00,,,0.00,Wunderground v.1.15,2013-01-30 02:05:00,
2013-01-29 21:10:00,45.8,43.3,30.02,SW,217,6.0,14.0,91,0.00,,,0.00,Wunderground v.1.15,2013-01-30 02:10:00,
2013-01-29 21:15:00,45.6,43.1,30.02,South,185,7.0,14.0,91,0.00,,,0.00,Wunderground v.1.15,2013-01-30 02:15:00,
2013-01-29 21:20:00,45.5,43.0,30.02,South,181,6.0,10.0,91,0.00,,,0.00,Wunderground v.1.15,2013-01-30 02:20:00,
2013-01-29 21:30:00,45.2,42.7,30.03,South,177,6.0,6.0,91,0.00,,,0.00,Wunderground v.1.15,2013-01-30 02:30:00,
2013-01-29 21:35:00,45.0,42.8,30.02,South,169,6.0,6.0,92,0.00,,,0.00,Wunderground v.1.15,2013-01-30 02:35:00,
2013-01-29 21:40:00,44.9,42.7,30.02,SSE,165,6.0,6.0,92,0.00,,,0.00,Wunderground v.1.15,2013-01-30 02:40:00,
2013-01-29 21:45:00,44.9,42.7,30.01,SSW,198,6.0,6.0,92,0.00,,,0.00,Wunderground v.1.15,2013-01-30 02:45:00,
2013-01-29 21:50:00,44.8,42.6,30.02,South,186,6.0,6.0,92,0.00,,,0.00,Wunderground v.1.15,2013-01-30 02:50:00,
2013-01-29 21:55:00,44.6,42.4,30.02,SSE,157,6.0,6.0,92,0.00,,,0.00,Wunderground v.1.15,2013-01-30 02:55:00,
2013-01-29 22:00:00,44.5,42.3,30.01,SSW,193,6.0,6.0,92,0.00,,,0.00,Wunderground v.1.15,2013-01-30 03:00:00,
2013-01-29 22:10:00,44.4,42.2,30.02,South,169,5.0,6.0,92,0.00,,,0.00,Wunderground v.1.15,2013-01-30 03:10:00,
2013-01-29 22:15:00,44.5,42.6,30.02,SSE,155,6.0,6.0,93,0.00,,,0.00,Wunderground v.1.15,2013-01-30 03:15:00,
2013-01-29 22:24:00,44.2,42.3,30.01,South,171,5.0,6.0,93,0.00,,,0.00,Wunderground v.1.15,2013-01-30 03:24:00,
2013-01-29 22:29:00,44.1,42.2,30.01,SSW,193,6.0,6.0,93,0.00,,,0.00,Wunderground v.1.15,2013-01-30 03:29:00,
2013-01-29 22:35:00,44.1,42.2,30.01,SSW,193,6.0,6.0,93,0.00,,,0.00,Wunderground v.1.15,2013-01-30 03:35:00,
2013-01-29 22:40:00,44.1,42.2,30.01,SSW,198,5.0,5.0,93,0.00,,,0.00,Wunderground v.1.15,2013-01-30 03:40:00,
2013-01-29 22:45:00,44.2,42.3,30.02,SSW,198,6.0,6.0,93,0.00,,,0.00,Wunderground v.1.15,2013-01-30 03:45:00,
2013-01-29 22:50:00,44.3,42.4,30.02,SE,138,6.0,6.0,93,0.00,,,0.00,Wunderground v.1.15,2013-01-30 03:50:00,
2013-01-29 22:59:00,44.3,42.4,30.01,SSW,203,6.0,6.0,93,0.00,,,0.00,Wunderground v.1.15,2013-01-30 03:59:00,
2013-01-29 23:05:00,44.2,42.3,30.02,SSE,167,6.0,6.0,93,0.00,,,0.00,Wunderground v.1.15,2013-01-30 04:05:00,
2013-01-29 23:10:00,44.2,42.3,30.01,South,174,5.0,5.0,93,0.00,,,0.00,Wunderground v.1.15,2013-01-30 04:10:00,
2013-01-29 23:15:00,44.0,42.1,30.00,South,177,5.0,5.0,93,0.00,,,0.00,Wunderground v.1.15,2013-01-30 04:15:00,
2013-01-29 23:20:00,43.8,41.9,30.00,SSW,193,5.0,5.0,93,0.00,,,0.00,Wunderground v.1.15,2013-01-30 04:20:00,
2013-01-29 23:25:00,43.6,41.7,30.00,South,176,5.0,5.0,93,0.00,,,0.00,Wunderground v.1.15,2013-01-30 04:25:00,
2013-01-29 23:34:00,43.4,41.8,30.00,South,187,5.0,5.0,94,0.00,,,0.00,Wunderground v.1.15,2013-01-30 04:34:00,
2013-01-29 23:39:00,43.5,41.9,30.00,SSE,167,5.0,8.0,94,0.00,,,0.00,Wunderground v.1.15,2013-01-30 04:39:00,
2013-01-29 23:45:00,43.6,42.0,30.01,SSW,193,5.0,8.0,94,0.00,,,0.00,Wunderground v.1.15,2013-01-30 04:45:00,
2013-01-29 23:50:00,43.6,42.0,30.00,SSW,193,6.0,6.0,94,0.00,,,0.00,Wunderground v.1.15,2013-01-30 04:50:00,
2013-01-29 23:55:00,43.5,41.9,29.99,SSW,203,6.0,10.0,94,0.00,,,0.00,Wunderground v.1.15,2013-01-30 04:55:00,